X  Close Metar Aviation Weather Data     ENGM Oslo Airport, Gardermoen
Temperature
15°C Temperature
7°C Dewpoint
59% Humidity



Wind
4 M/S
10 MPH
16 KM/H
9 KTS



160°
SSE
Current Conditions

Clear Clear
Pressure 1010.92 (hPa) - 29.85 (inHg)
Visibility 6.2 (mile) - 10 (km)
Airport
Airport-code ENGM

Location: Oslo Airport, Gardermoen
Distance: 6 (km)

Metar:
ENGM 221750Z 16009KT CAVOK 15/07 Q1011 NOSIG

Time: 22-05-2022 19:50 CEST